createdAt,value
2019-04-28T00:00:55.085Z,79.00
2019-04-28T00:02:01.411Z,79.00
2019-04-28T00:03:05.900Z,79.10
2019-04-28T00:04:11.539Z,79.00
2019-04-28T00:05:16.050Z,79.00
2019-04-28T00:06:21.109Z,79.30
2019-04-28T00:07:25.481Z,79.00
2019-04-28T00:08:29.628Z,79.00
2019-04-28T00:09:33.992Z,79.20
2019-04-28T00:10:41.822Z,79.30
2019-04-28T00:11:46.048Z,79.30
2019-04-28T00:12:51.085Z,79.20
2019-04-28T00:13:55.445Z,79.30
2019-04-28T00:14:59.648Z,79.30
2019-04-28T00:16:04.614Z,79.10
2019-04-28T00:17:11.091Z,79.10
2019-04-28T00:18:15.532Z,79.10
2019-04-28T00:19:20.899Z,79.20
2019-04-28T00:20:31.096Z,79.10
2019-04-28T00:21:37.241Z,79.20
2019-04-28T00:22:58.110Z,79.30
2019-04-28T00:24:11.428Z,79.30
2019-04-28T00:25:23.138Z,79.30
2019-04-28T00:26:41.265Z,79.20
2019-04-28T00:27:46.431Z,79.20
2019-04-28T00:28:51.354Z,79.10
2019-04-28T00:30:01.953Z,79.30
2019-04-28T00:31:03.007Z,79.30
2019-04-28T00:32:07.330Z,79.50
2019-04-28T00:33:11.749Z,79.50
2019-04-28T00:34:16.071Z,79.40
2019-04-28T00:35:23.184Z,79.60
2019-04-28T00:36:27.547Z,79.50
2019-04-28T00:37:32.542Z,79.40
2019-04-28T00:38:36.747Z,79.30
2019-04-28T00:39:41.074Z,79.50
2019-04-28T00:40:45.376Z,79.50
2019-04-28T00:41:51.455Z,79.50
2019-04-28T00:42:58.015Z,79.70
2019-04-28T00:44:01.937Z,79.50
2019-04-28T00:45:11.525Z,79.40
2019-04-28T00:46:17.581Z,79.40
2019-04-28T00:47:23.122Z,79.40
2019-04-28T00:48:27.431Z,79.40
2019-04-28T00:49:48.844Z,79.40
2019-04-28T00:50:53.024Z,79.50
2019-04-28T00:51:57.350Z,79.50
2019-04-28T00:53:03.089Z,79.70
2019-04-28T00:54:07.382Z,79.70
2019-04-28T00:55:11.552Z,79.60
2019-04-28T00:56:16.302Z,79.70
2019-04-28T00:57:21.183Z,79.80
2019-04-28T00:58:27.587Z,79.80
2019-04-28T00:59:33.282Z,79.70
2019-04-28T01:00:41.339Z,79.70
2019-04-28T01:01:51.254Z,79.60
2019-04-28T01:02:55.690Z,79.60
2019-04-28T01:04:02.290Z,79.60
2019-04-28T01:05:08.474Z,79.50
2019-04-28T01:06:14.083Z,79.70
2019-04-28T01:07:18.476Z,80.40
2019-04-28T01:08:24.158Z,79.70
2019-04-28T01:09:28.544Z,79.70
2019-04-28T01:10:32.884Z,79.70
2019-04-28T01:11:38.501Z,80.00
2019-04-28T01:12:46.649Z,79.80
2019-04-28T01:13:54.813Z,79.90
2019-04-28T01:15:01.654Z,79.80
2019-04-28T01:16:15.920Z,79.90
2019-04-28T01:17:24.640Z,80.00
2019-04-28T01:18:43.186Z,79.90
2019-04-28T01:19:54.558Z,79.80
2019-04-28T01:20:59.679Z,79.60
2019-04-28T01:22:11.150Z,79.70
2019-04-28T01:23:16.912Z,79.70
2019-04-28T01:24:24.067Z,79.80
2019-04-28T01:25:29.853Z,79.90
2019-04-28T01:26:34.218Z,79.90
2019-04-28T01:27:40.359Z,79.70
2019-04-28T01:28:44.594Z,79.80
2019-04-28T01:29:51.659Z,79.80
2019-04-28T01:31:02.202Z,80.00
2019-04-28T01:32:13.982Z,80.60
2019-04-28T01:33:25.992Z,80.10
2019-04-28T01:34:30.177Z,80.10
2019-04-28T01:35:36.246Z,80.10
2019-04-28T01:36:43.329Z,80.10
2019-04-28T01:37:50.535Z,80.00
2019-04-28T01:38:54.903Z,79.80
2019-04-28T01:40:00.778Z,79.80
2019-04-28T01:41:05.158Z,79.70
2019-04-28T01:42:12.642Z,79.70
2019-04-28T01:43:21.038Z,79.80
2019-04-28T01:44:26.582Z,79.70
2019-04-28T01:45:31.905Z,79.70
2019-04-28T01:46:36.187Z,79.70
2019-04-28T01:47:40.616Z,79.70
2019-04-28T01:48:44.914Z,79.60
2019-04-28T01:49:50.866Z,79.60
2019-04-28T01:50:59.828Z,79.60
2019-04-28T01:52:05.802Z,79.70
2019-04-28T01:53:17.156Z,79.50
2019-04-28T01:54:16.067Z,79.70
2019-04-28T01:55:22.110Z,79.70
2019-04-28T01:56:26.747Z,79.50
2019-04-28T01:57:31.034Z,79.50
2019-04-28T01:58:36.510Z,79.30
2019-04-28T01:59:40.810Z,79.40
2019-04-28T02:00:47.132Z,79.30
2019-04-28T02:01:51.309Z,79.30
2019-04-28T02:02:55.654Z,79.20
2019-04-28T02:04:00.238Z,79.10
2019-04-28T02:05:09.687Z,79.20
2019-04-28T02:06:13.957Z,79.10
2019-04-28T02:07:21.807Z,79.10
2019-04-28T02:08:27.376Z,79.40
2019-04-28T02:09:31.468Z,79.40
2019-04-28T02:10:36.172Z,79.40
2019-04-28T02:11:42.147Z,79.30
2019-04-28T02:12:46.296Z,79.40
2019-04-28T02:13:50.828Z,79.50
2019-04-28T02:14:56.440Z,79.50
2019-04-28T02:16:02.344Z,79.40
2019-04-28T02:17:06.632Z,79.40
2019-04-28T02:18:10.845Z,79.50
2019-04-28T02:19:15.852Z,79.60
2019-04-28T02:20:22.218Z,79.50
2019-04-28T02:21:29.532Z,80.10
2019-04-28T02:22:47.521Z,79.60
2019-04-28T02:23:52.876Z,79.70
2019-04-28T02:25:00.258Z,79.80
2019-04-28T02:26:04.547Z,79.70
2019-04-28T02:27:10.547Z,79.60
2019-04-28T02:28:14.906Z,79.40
2019-04-28T02:29:21.880Z,79.70
2019-04-28T02:30:40.951Z,80.50
2019-04-28T02:31:31.971Z,79.60
2019-04-28T02:32:36.334Z,79.50
2019-04-28T02:33:40.898Z,79.50
2019-04-28T02:35:16.105Z,79.60
2019-04-28T02:35:55.874Z,79.50
2019-04-28T02:37:01.507Z,79.50
2019-04-28T02:38:11.335Z,79.50
2019-04-28T02:39:15.028Z,79.40
2019-04-28T02:40:23.840Z,79.40
2019-04-28T02:41:30.669Z,79.20
2019-04-28T02:42:35.163Z,79.10
2019-04-28T02:43:40.937Z,79.10
2019-04-28T02:44:45.361Z,79.40
2019-04-28T02:45:53.436Z,79.20
2019-04-28T02:46:56.282Z,79.10
2019-04-28T02:48:03.207Z,79.30
2019-04-28T02:49:10.259Z,79.30
2019-04-28T02:50:16.535Z,79.40
2019-04-28T02:51:25.366Z,79.40
2019-04-28T02:52:51.580Z,79.30
2019-04-28T02:53:54.775Z,79.00
2019-04-28T02:55:03.064Z,79.20
2019-04-28T02:56:07.849Z,79.00
2019-04-28T02:57:13.796Z,79.10
2019-04-28T02:58:22.267Z,79.00
2019-04-28T02:59:24.585Z,79.10
2019-04-28T03:00:32.104Z,79.10
2019-04-28T03:01:36.395Z,79.10
2019-04-28T03:02:41.661Z,79.30
2019-04-28T03:03:46.168Z,79.30
2019-04-28T03:04:50.852Z,79.40
2019-04-28T03:05:56.516Z,79.40
2019-04-28T03:07:01.464Z,79.30
2019-04-28T03:08:05.711Z,79.40
2019-04-28T03:09:10.584Z,79.50
2019-04-28T03:10:16.425Z,79.50
2019-04-28T03:11:20.637Z,79.70
2019-04-28T03:12:26.089Z,79.70
2019-04-28T03:13:31.145Z,79.60
2019-04-28T03:14:37.249Z,79.60
2019-04-28T03:15:42.275Z,79.60
2019-04-28T03:16:46.582Z,79.70
2019-04-28T03:17:53.222Z,79.80
2019-04-28T03:18:57.761Z,79.80
2019-04-28T03:20:02.109Z,79.80
2019-04-28T03:21:06.356Z,79.60
2019-04-28T03:22:11.591Z,79.40
2019-04-28T03:23:16.729Z,79.30
2019-04-28T03:24:22.529Z,79.40
2019-04-28T03:25:30.210Z,79.50
2019-04-28T03:26:41.174Z,79.10
2019-04-28T03:27:47.332Z,79.50
2019-04-28T03:29:10.710Z,79.80
2019-04-28T03:30:33.841Z,79.80
2019-04-28T03:32:03.686Z,79.70
2019-04-28T03:32:55.347Z,79.80
2019-04-28T03:33:57.661Z,79.60
2019-04-28T03:35:03.537Z,79.60
2019-04-28T03:36:09.265Z,79.30
2019-04-28T03:37:13.552Z,79.70
2019-04-28T03:38:17.744Z,79.70
2019-04-28T03:39:21.961Z,79.70
2019-04-28T03:40:26.273Z,79.80
2019-04-28T03:41:31.173Z,79.80
2019-04-28T03:42:35.645Z,79.90
2019-04-28T03:43:40.650Z,80.00
2019-04-28T03:44:47.096Z,79.70
2019-04-28T03:45:52.890Z,79.70
2019-04-28T03:46:57.369Z,79.70
2019-04-28T03:48:02.612Z,79.70
2019-04-28T03:49:06.757Z,79.50
2019-04-28T03:50:11.012Z,79.40
2019-04-28T03:51:15.101Z,79.20
2019-04-28T03:52:21.260Z,78.70
2019-04-28T03:53:26.561Z,79.50
2019-04-28T03:54:30.820Z,78.60
2019-04-28T03:55:35.163Z,78.70
2019-04-28T03:56:41.306Z,79.50
2019-04-28T03:57:45.055Z,78.60
2019-04-28T03:58:50.436Z,78.70
2019-04-28T03:59:54.832Z,78.70
2019-04-28T04:01:02.660Z,78.70
2019-04-28T04:02:07.714Z,78.80
2019-04-28T04:03:11.910Z,79.00
2019-04-28T04:04:21.171Z,78.90
2019-04-28T04:05:23.399Z,79.00
2019-04-28T04:06:27.700Z,78.90
2019-04-28T04:07:31.989Z,79.00
2019-04-28T04:08:41.065Z,79.00
2019-04-28T04:09:44.900Z,79.00
2019-04-28T04:10:56.721Z,79.00
2019-04-28T04:12:14.890Z,78.90
2019-04-28T04:13:35.707Z,78.70
2019-04-28T04:14:47.097Z,78.60
2019-04-28T04:16:10.371Z,78.60
2019-04-28T04:17:16.338Z,78.60
2019-04-28T04:18:35.439Z,78.50
2019-04-28T04:19:40.749Z,78.60
2019-04-28T04:20:45.351Z,78.70
2019-04-28T04:21:50.373Z,78.70
2019-04-28T04:22:55.491Z,78.70
2019-04-28T04:24:02.607Z,78.50
2019-04-28T04:25:12.397Z,78.60
2019-04-28T04:26:21.029Z,78.50
2019-04-28T04:27:27.112Z,78.60
2019-04-28T04:28:41.673Z,78.50
2019-04-28T04:29:50.914Z,78.60
2019-04-28T04:30:55.499Z,78.40
2019-04-28T04:32:13.469Z,78.30
2019-04-28T04:33:05.684Z,78.20
2019-04-28T04:34:14.925Z,78.10
2019-04-28T04:35:17.289Z,78.30
2019-04-28T04:36:24.708Z,78.50
2019-04-28T04:37:31.303Z,78.50
2019-04-28T04:38:45.683Z,79.00
2019-04-28T04:39:44.703Z,79.00
2019-04-28T04:40:52.775Z,78.70
2019-04-28T04:42:05.572Z,77.90
2019-04-28T04:43:07.018Z,78.00
2019-04-28T04:44:12.813Z,77.90
2019-04-28T04:45:21.818Z,77.80
2019-04-28T04:46:36.115Z,77.90
2019-04-28T04:47:42.032Z,77.70
2019-04-28T04:48:51.052Z,77.90
2019-04-28T04:50:00.052Z,78.00
2019-04-28T04:51:04.880Z,77.90
2019-04-28T04:52:13.202Z,77.80
2019-04-28T04:53:21.345Z,77.70
2019-04-28T04:54:27.369Z,77.60
2019-04-28T04:55:32.848Z,77.70
2019-04-28T04:56:44.571Z,77.60
2019-04-28T04:58:00.817Z,77.60
2019-04-28T04:59:06.868Z,77.60
2019-04-28T05:00:13.198Z,77.50
2019-04-28T05:01:23.042Z,77.60
2019-04-28T05:02:33.289Z,77.50
2019-04-28T05:03:59.545Z,77.60
2019-04-28T05:05:05.801Z,77.50
2019-04-28T05:06:31.328Z,77.50
2019-04-28T05:07:41.061Z,77.50
2019-04-28T05:08:52.370Z,77.50
2019-04-28T05:09:54.937Z,77.50
2019-04-28T05:11:04.706Z,77.50
2019-04-28T05:12:09.693Z,77.60
2019-04-28T05:13:13.931Z,77.60
2019-04-28T05:14:19.883Z,77.70
2019-04-28T05:15:23.855Z,77.70
2019-04-28T05:16:29.813Z,77.90
2019-04-28T05:17:36.300Z,77.90
2019-04-28T05:18:41.759Z,77.70
2019-04-28T05:19:50.238Z,77.60
2019-04-28T05:20:54.459Z,77.60
2019-04-28T05:21:59.997Z,77.50
2019-04-28T05:23:22.234Z,77.50
2019-04-28T05:24:51.131Z,77.50
2019-04-28T05:25:53.666Z,77.30
2019-04-28T05:27:05.199Z,77.20
2019-04-28T05:28:10.518Z,77.00
2019-04-28T05:29:14.674Z,76.90
2019-04-28T05:30:20.356Z,77.00
2019-04-28T05:31:24.763Z,77.00
2019-04-28T05:32:41.478Z,76.90
2019-04-28T05:33:36.039Z,76.80
2019-04-28T05:34:46.840Z,77.00
2019-04-28T05:35:50.068Z,76.90
2019-04-28T05:36:55.485Z,76.80
2019-04-28T05:37:59.860Z,76.60
2019-04-28T05:39:06.307Z,76.60
2019-04-28T05:40:13.893Z,76.60
2019-04-28T05:41:19.628Z,76.60
2019-04-28T05:42:23.813Z,76.60
2019-04-28T05:43:29.490Z,76.80
2019-04-28T05:44:33.638Z,76.80
2019-04-28T05:45:39.607Z,76.80
2019-04-28T05:46:43.607Z,76.80
2019-04-28T05:47:50.132Z,76.90
2019-04-28T05:49:02.462Z,76.80
2019-04-28T05:50:08.326Z,76.70
2019-04-28T05:51:14.255Z,76.70
2019-04-28T05:52:36.705Z,76.70
2019-04-28T05:53:44.853Z,76.50
2019-04-28T05:54:52.165Z,76.30
2019-04-28T05:56:00.055Z,76.20
2019-04-28T05:57:05.997Z,75.90
2019-04-28T05:58:27.333Z,75.80
2019-04-28T05:59:43.768Z,75.90
2019-04-28T06:00:52.334Z,75.40
2019-04-28T06:01:58.111Z,75.00
2019-04-28T06:03:05.494Z,74.90
2019-04-28T06:04:11.193Z,74.90
2019-04-28T06:05:15.548Z,74.80
2019-04-28T06:06:21.337Z,74.60
2019-04-28T06:07:43.366Z,74.50
2019-04-28T06:08:54.903Z,74.40
2019-04-28T06:10:04.295Z,74.10
2019-04-28T06:11:26.117Z,74.00
2019-04-28T06:12:32.079Z,73.90
2019-04-28T06:13:36.221Z,74.00
2019-04-28T06:14:42.006Z,74.20
2019-04-28T06:15:46.215Z,74.40
2019-04-28T06:16:53.341Z,75.30
2019-04-28T06:17:57.509Z,74.50
2019-04-28T06:19:03.309Z,74.20
2019-04-28T06:20:07.618Z,73.60
2019-04-28T06:21:11.755Z,73.60
2019-04-28T06:22:17.794Z,73.60
2019-04-28T06:23:21.646Z,73.70
2019-04-28T06:24:25.833Z,73.80
2019-04-28T06:25:29.917Z,73.80
2019-04-28T06:26:34.091Z,74.00
2019-04-28T06:27:39.522Z,73.60
2019-04-28T06:28:45.300Z,73.50
2019-04-28T06:29:49.501Z,73.50
2019-04-28T06:30:54.361Z,72.60
2019-04-28T06:31:58.615Z,73.20
2019-04-28T06:33:08.232Z,73.30
2019-04-28T06:34:09.693Z,73.30
2019-04-28T06:35:14.093Z,73.20
2019-04-28T06:36:18.389Z,73.10
2019-04-28T06:37:22.596Z,73.00
2019-04-28T06:38:26.694Z,72.50
2019-04-28T06:39:32.085Z,72.20
2019-04-28T06:40:36.310Z,72.00
2019-04-28T06:41:42.034Z,72.00
2019-04-28T06:42:51.783Z,72.10
2019-04-28T06:43:54.246Z,72.00
2019-04-28T06:44:58.425Z,71.90
2019-04-28T06:46:02.704Z,71.70
2019-04-28T06:47:09.858Z,71.60
2019-04-28T06:48:15.605Z,71.50
2019-04-28T06:49:23.961Z,71.20
2019-04-28T06:50:28.277Z,71.10
2019-04-28T06:51:33.054Z,71.10
2019-04-28T06:52:39.036Z,71.10
2019-04-28T06:53:46.933Z,71.00
2019-04-28T06:54:50.711Z,70.90
2019-04-28T06:56:01.120Z,70.70
2019-04-28T06:57:04.603Z,70.70
2019-04-28T06:58:10.322Z,70.40
2019-04-28T06:59:17.383Z,70.30
2019-04-28T07:00:24.847Z,70.30
2019-04-28T07:01:28.208Z,70.30
2019-04-28T07:02:32.492Z,70.30
2019-04-28T07:03:39.268Z,70.30
2019-04-28T07:04:42.563Z,70.40
2019-04-28T07:05:50.027Z,70.60
2019-04-28T07:06:53.231Z,70.60
2019-04-28T07:08:00.645Z,70.70
2019-04-28T07:09:07.081Z,70.90
2019-04-28T07:10:12.935Z,71.00
2019-04-28T07:11:18.752Z,71.10
2019-04-28T07:12:24.594Z,71.20
2019-04-28T07:13:28.905Z,71.40
2019-04-28T07:14:34.738Z,71.30
2019-04-28T07:15:39.047Z,71.10
2019-04-28T07:16:44.786Z,71.00
2019-04-28T07:17:49.669Z,70.80
2019-04-28T07:18:57.098Z,70.70
2019-04-28T07:20:10.468Z,70.70
2019-04-28T07:21:17.786Z,70.80
2019-04-28T07:22:26.591Z,70.80
2019-04-28T07:23:35.912Z,70.60
2019-04-28T07:24:39.169Z,70.60
2019-04-28T07:25:46.194Z,70.60
2019-04-28T07:26:50.380Z,70.60
2019-04-28T07:27:55.200Z,70.50
2019-04-28T07:28:59.476Z,70.40
2019-04-28T07:30:09.449Z,70.40
2019-04-28T07:31:13.707Z,70.50
2019-04-28T07:32:22.104Z,70.40
2019-04-28T07:33:35.610Z,70.60
2019-04-28T07:34:34.522Z,70.60
2019-04-28T07:35:37.952Z,70.80
2019-04-28T07:36:43.962Z,70.90
2019-04-28T07:37:56.637Z,71.00
2019-04-28T07:39:00.455Z,71.10
2019-04-28T07:40:50.585Z,71.30
2019-04-28T07:41:49.067Z,71.50
2019-04-28T07:43:02.428Z,71.80
2019-04-28T07:44:11.560Z,71.80
2019-04-28T07:45:20.000Z,72.00
2019-04-28T07:47:58.177Z,71.90
2019-04-28T07:49:53.045Z,71.90
2019-04-28T07:50:39.373Z,71.90
2019-04-28T07:52:07.778Z,71.70
2019-04-28T07:53:01.683Z,71.70
2019-04-28T07:54:09.090Z,71.40
2019-04-28T07:55:27.409Z,71.30
2019-04-28T07:56:23.927Z,71.30
2019-04-28T07:57:47.226Z,71.30
2019-04-28T07:58:52.102Z,71.20
2019-04-28T08:00:13.084Z,71.30
2019-04-28T08:02:51.698Z,71.20
2019-04-28T08:03:59.507Z,71.00
2019-04-28T08:05:10.496Z,70.90
2019-04-28T08:06:18.776Z,70.90
2019-04-28T08:07:27.828Z,70.50
2019-04-28T08:09:31.949Z,70.50
2019-04-28T08:09:56.258Z,70.50
2019-04-28T08:11:10.353Z,70.60
2019-04-28T08:12:21.767Z,70.50
2019-04-28T08:14:01.912Z,70.50
2019-04-28T08:14:46.379Z,70.60
2019-04-28T08:16:45.001Z,70.60
2019-04-28T08:17:14.589Z,70.50
2019-04-28T08:21:05.503Z,70.50
2019-04-28T08:23:48.527Z,70.40
2019-04-28T08:24:48.891Z,70.40
2019-04-28T08:26:05.583Z,70.40
2019-04-28T08:27:00.832Z,70.40
2019-04-28T08:27:12.651Z,70.60
2019-04-28T08:28:10.882Z,70.40
2019-04-28T08:29:22.355Z,70.50
2019-04-28T08:32:18.633Z,70.60
2019-04-28T08:33:33.842Z,71.20
2019-04-28T08:34:44.331Z,70.40
2019-04-28T08:35:57.258Z,70.40
2019-04-28T08:37:09.572Z,70.50
2019-04-28T08:38:17.122Z,70.60
2019-04-28T08:39:37.523Z,70.80
2019-04-28T08:40:34.028Z,71.00
2019-04-28T08:41:39.909Z,71.10
2019-04-28T08:43:23.054Z,71.10
2019-04-28T08:44:13.679Z,70.90
2019-04-28T08:47:01.417Z,70.40
2019-04-28T08:48:29.273Z,70.00
2019-04-28T08:50:51.819Z,69.30
2019-04-28T08:53:48.962Z,68.90
2019-04-28T08:55:06.095Z,68.50
2019-04-28T08:56:00.009Z,68.60
2019-04-28T08:57:06.089Z,68.40
2019-04-28T08:58:24.800Z,68.40
2019-04-28T08:59:35.701Z,68.30
2019-04-28T09:00:41.437Z,68.50
2019-04-28T09:01:45.663Z,68.60
2019-04-28T09:02:52.721Z,68.60
2019-04-28T09:03:57.026Z,68.20
2019-04-28T09:05:02.849Z,68.10
2019-04-28T09:06:07.094Z,68.30
2019-04-28T09:07:11.447Z,68.60
2019-04-28T09:08:15.638Z,68.70
2019-04-28T09:09:21.986Z,68.80
2019-04-28T09:10:27.791Z,69.00
2019-04-28T09:11:31.944Z,69.30
2019-04-28T09:12:36.170Z,69.50
2019-04-28T09:13:43.754Z,69.70
2019-04-28T09:14:47.805Z,69.80
2019-04-28T09:15:51.954Z,70.00
2019-04-28T09:16:56.085Z,70.10
2019-04-28T09:18:00.231Z,70.20
2019-04-28T09:19:04.534Z,70.40
2019-04-28T09:20:11.984Z,70.50
2019-04-28T09:21:16.187Z,70.60
2019-04-28T09:22:20.373Z,70.80
2019-04-28T09:23:24.464Z,70.90
2019-04-28T09:24:28.670Z,71.10
2019-04-28T09:25:34.154Z,71.10
2019-04-28T09:26:38.260Z,71.20
2019-04-28T09:27:42.537Z,71.30
2019-04-28T09:28:46.603Z,71.40
2019-04-28T09:29:50.760Z,71.50
2019-04-28T09:30:54.797Z,71.50
2019-04-28T09:31:58.959Z,71.60
2019-04-28T09:33:06.230Z,71.80
2019-04-28T09:34:10.318Z,71.90
2019-04-28T09:35:14.958Z,71.90
2019-04-28T09:36:19.130Z,71.90
2019-04-28T09:37:23.280Z,72.00
2019-04-28T09:38:27.378Z,71.90
2019-04-28T09:39:42.383Z,72.00
2019-04-28T09:40:46.630Z,72.00
2019-04-28T09:42:08.209Z,71.90
2019-04-28T09:43:20.096Z,72.00
2019-04-28T09:44:24.256Z,71.90
2019-04-28T09:45:30.153Z,71.90
2019-04-28T09:46:35.970Z,71.90
2019-04-28T09:47:40.151Z,71.90
2019-04-28T09:48:46.589Z,72.10
2019-04-28T09:49:50.657Z,72.30
2019-04-28T09:50:54.795Z,72.30
2019-04-28T09:51:58.896Z,72.30
2019-04-28T09:53:03.109Z,72.60
2019-04-28T09:54:07.259Z,73.00
2019-04-28T09:55:11.523Z,72.70
2019-04-28T09:56:15.651Z,72.70
2019-04-28T09:57:19.862Z,72.70
2019-04-28T09:58:27.232Z,72.70
2019-04-28T09:59:31.392Z,72.70
2019-04-28T10:00:35.927Z,72.90
2019-04-28T10:01:41.367Z,73.00
2019-04-28T10:02:45.423Z,73.30
2019-04-28T10:03:49.563Z,73.30
2019-04-28T10:04:59.462Z,73.40
2019-04-28T10:06:05.182Z,73.50
2019-04-28T10:07:09.451Z,73.80
2019-04-28T10:08:13.542Z,73.80
2019-04-28T10:09:17.826Z,74.00
2019-04-28T10:10:21.959Z,74.20
2019-04-28T10:11:30.725Z,74.40
2019-04-28T10:12:32.008Z,74.60
2019-04-28T10:13:36.771Z,74.80
2019-04-28T10:14:41.038Z,75.60
2019-04-28T10:15:48.004Z,75.10
2019-04-28T10:16:55.225Z,75.20
2019-04-28T10:17:58.532Z,75.10
2019-04-28T10:19:02.783Z,75.10
2019-04-28T10:20:07.871Z,75.20
2019-04-28T10:21:12.063Z,75.20
2019-04-28T10:22:16.298Z,75.30
2019-04-28T10:23:20.395Z,75.40
2019-04-28T10:24:28.243Z,75.30
2019-04-28T10:25:33.123Z,75.30
2019-04-28T10:26:37.384Z,75.30
2019-04-28T10:27:41.541Z,75.20
2019-04-28T10:28:45.808Z,75.10
2019-04-28T10:29:49.940Z,75.20
2019-04-28T10:30:55.762Z,75.30
2019-04-28T10:31:59.999Z,75.30
2019-04-28T10:33:04.217Z,75.30
2019-04-28T10:34:08.482Z,75.30
2019-04-28T10:35:16.566Z,75.40
2019-04-28T10:36:22.247Z,75.40
2019-04-28T10:37:26.421Z,75.40
2019-04-28T10:38:30.492Z,75.50
2019-04-28T10:39:39.746Z,75.60
2019-04-28T10:40:45.558Z,75.40
2019-04-28T10:41:49.755Z,75.60
2019-04-28T10:42:56.507Z,75.60
2019-04-28T10:44:02.267Z,75.60
2019-04-28T10:45:09.495Z,75.50
2019-04-28T10:46:14.270Z,75.40
2019-04-28T10:47:20.646Z,75.30
2019-04-28T10:48:25.896Z,75.20
2019-04-28T10:49:30.230Z,75.20
2019-04-28T10:50:35.292Z,75.10
2019-04-28T10:51:39.454Z,75.90
2019-04-28T10:52:43.630Z,74.80
2019-04-28T10:53:47.688Z,74.70
2019-04-28T10:54:51.854Z,74.60
2019-04-28T10:55:58.920Z,74.70
2019-04-28T10:57:03.101Z,74.60
2019-04-28T10:58:07.930Z,74.70
2019-04-28T10:59:12.131Z,74.60
2019-04-28T11:00:18.230Z,74.60
2019-04-28T11:01:22.415Z,74.50
2019-04-28T11:02:26.613Z,74.40
2019-04-28T11:03:30.665Z,75.40
2019-04-28T11:04:39.353Z,74.50
2019-04-28T11:05:44.813Z,74.60
2019-04-28T11:06:48.835Z,74.70
2019-04-28T11:07:54.706Z,74.70
2019-04-28T11:09:03.271Z,74.60
2019-04-28T11:10:13.243Z,74.70
2019-04-28T11:11:22.276Z,74.70
2019-04-28T11:12:32.452Z,74.80
2019-04-28T11:13:36.599Z,75.00
2019-04-28T11:14:40.810Z,74.80
2019-04-28T11:15:46.894Z,74.80
2019-04-28T11:16:51.100Z,74.80
2019-04-28T11:17:57.003Z,74.80
2019-04-28T11:19:02.301Z,74.70
2019-04-28T11:20:06.494Z,74.80
2019-04-28T11:21:10.610Z,75.00
2019-04-28T11:22:16.201Z,75.10
2019-04-28T11:23:23.165Z,75.10
2019-04-28T11:24:26.238Z,75.10
2019-04-28T11:25:30.551Z,75.20
2019-04-28T11:26:35.360Z,75.10
2019-04-28T11:27:39.609Z,76.00
2019-04-28T11:28:43.762Z,75.10
2019-04-28T11:29:47.942Z,75.10
2019-04-28T11:30:52.149Z,75.00
2019-04-28T11:31:56.370Z,75.10
2019-04-28T11:33:19.988Z,75.30
2019-04-28T11:34:25.755Z,75.10
2019-04-28T11:35:31.563Z,75.30
2019-04-28T11:36:35.802Z,75.60
2019-04-28T11:37:40.090Z,75.50
2019-04-28T11:38:44.205Z,75.70
2019-04-28T11:39:48.464Z,75.60
2019-04-28T11:40:52.597Z,75.90
2019-04-28T11:42:00.761Z,75.90
2019-04-28T11:43:04.978Z,76.00
2019-04-28T11:44:09.555Z,76.00
2019-04-28T11:45:14.094Z,76.90
2019-04-28T11:46:19.909Z,76.10
2019-04-28T11:47:23.994Z,76.30
2019-04-28T11:48:28.123Z,76.30
2019-04-28T11:49:32.227Z,77.00
2019-04-28T11:50:36.376Z,76.20
2019-04-28T11:51:40.642Z,76.10
2019-04-28T11:52:45.850Z,76.10
2019-04-28T11:53:51.661Z,76.40
2019-04-28T11:54:55.867Z,76.50
2019-04-28T11:56:00.063Z,76.60
2019-04-28T11:57:04.265Z,76.70
2019-04-28T11:58:10.188Z,76.80
2019-04-28T11:59:14.404Z,77.00
2019-04-28T12:00:26.379Z,77.00
2019-04-28T12:01:30.507Z,76.90
2019-04-28T12:02:36.114Z,77.80
2019-04-28T12:03:40.193Z,77.00
2019-04-28T12:04:44.368Z,76.80
2019-04-28T12:05:48.713Z,76.80
2019-04-28T12:06:52.993Z,76.80
2019-04-28T12:07:57.140Z,76.80
2019-04-28T12:09:20.681Z,76.80
2019-04-28T12:10:29.051Z,76.80
2019-04-28T12:11:37.840Z,76.90
2019-04-28T12:13:01.359Z,76.70
2019-04-28T12:14:13.270Z,76.70
2019-04-28T12:15:25.008Z,76.90
2019-04-28T12:16:49.169Z,76.80
2019-04-28T12:17:55.058Z,76.90
2019-04-28T12:19:00.760Z,77.00
2019-04-28T12:20:11.318Z,77.00
2019-04-28T12:21:15.498Z,77.00
2019-04-28T12:22:19.642Z,77.10
2019-04-28T12:23:23.732Z,77.20
2019-04-28T12:24:29.462Z,77.20
2019-04-28T12:25:33.754Z,77.10
2019-04-28T12:26:37.745Z,77.10
2019-04-28T12:27:41.980Z,77.40
2019-04-28T12:28:46.098Z,77.30
2019-04-28T12:29:50.366Z,77.20
2019-04-28T12:30:54.522Z,77.40
2019-04-28T12:31:58.578Z,77.20
2019-04-28T12:33:02.769Z,77.40
2019-04-28T12:34:08.656Z,77.50
2019-04-28T12:35:14.218Z,77.30
2019-04-28T12:36:18.425Z,76.60
2019-04-28T12:37:22.529Z,77.40
2019-04-28T12:38:26.914Z,77.40
2019-04-28T12:39:39.907Z,77.70
2019-04-28T12:40:44.180Z,77.50
2019-04-28T12:41:48.398Z,77.70
2019-04-28T12:42:53.190Z,77.80
2019-04-28T12:43:57.325Z,77.90
2019-04-28T12:45:04.083Z,77.90
2019-04-28T12:46:15.826Z,78.10
2019-04-28T12:47:28.411Z,78.20
2019-04-28T12:48:28.723Z,78.40
2019-04-28T12:49:50.807Z,78.60
2019-04-28T12:50:56.758Z,78.80
2019-04-28T12:52:02.137Z,78.90
2019-04-28T12:53:06.446Z,79.00
2019-04-28T12:54:12.396Z,79.10
2019-04-28T12:55:16.661Z,79.30
2019-04-28T12:56:23.580Z,79.20
2019-04-28T12:57:29.761Z,79.30
2019-04-28T12:58:35.612Z,79.50
2019-04-28T12:59:43.961Z,79.50
2019-04-28T13:00:49.706Z,79.60
2019-04-28T13:01:55.489Z,79.70
2019-04-28T13:03:06.924Z,79.70
2019-04-28T13:04:39.179Z,79.70
2019-04-28T13:05:32.324Z,79.90
2019-04-28T13:06:43.608Z,79.90
2019-04-28T13:07:50.344Z,80.00
2019-04-28T13:09:01.385Z,79.90
2019-04-28T13:10:08.301Z,80.00
2019-04-28T13:11:10.841Z,79.90
2019-04-28T13:12:15.082Z,80.00
2019-04-28T13:13:30.113Z,80.20
2019-04-28T13:14:34.401Z,80.20
2019-04-28T13:15:40.637Z,80.30
2019-04-28T13:16:47.460Z,80.30
2019-04-28T13:17:52.323Z,80.40
2019-04-28T13:18:58.106Z,80.30
2019-04-28T13:20:02.191Z,80.30
2019-04-28T13:21:06.858Z,80.30
2019-04-28T13:22:11.134Z,80.30
2019-04-28T13:23:15.380Z,80.40
2019-04-28T13:24:21.154Z,80.40
2019-04-28T13:25:25.453Z,80.40
2019-04-28T13:26:29.687Z,80.60
2019-04-28T13:27:34.107Z,80.60
2019-04-28T13:28:38.379Z,80.50
2019-04-28T13:29:53.395Z,80.60
2019-04-28T13:30:49.530Z,80.60
2019-04-28T13:32:00.003Z,80.50
2019-04-28T13:33:10.533Z,80.60
2019-04-28T13:34:16.453Z,80.60
2019-04-28T13:35:24.092Z,80.50
2019-04-28T13:38:01.184Z,80.60
2019-04-28T13:39:13.335Z,80.40
2019-04-28T13:40:19.238Z,80.30
2019-04-28T13:41:24.803Z,80.20
2019-04-28T13:42:29.011Z,80.30
2019-04-28T13:43:33.259Z,80.40
2019-04-28T13:44:51.092Z,80.30
2019-04-28T13:45:56.325Z,80.30
2019-04-28T13:47:38.836Z,80.40
2019-04-28T13:48:14.812Z,80.40
2019-04-28T13:49:23.094Z,80.30
2019-04-28T13:50:29.751Z,80.40
2019-04-28T13:51:35.721Z,80.40
2019-04-28T13:52:41.531Z,80.40
2019-04-28T13:53:45.673Z,80.60
2019-04-28T13:54:54.123Z,80.70
2019-04-28T13:56:11.533Z,80.70
2019-04-28T13:57:08.827Z,80.70
2019-04-28T13:58:15.547Z,80.80
2019-04-28T13:59:21.324Z,80.90
2019-04-28T14:00:39.660Z,81.00
2019-04-28T14:01:52.837Z,80.90
2019-04-28T14:03:01.078Z,81.00
2019-04-28T14:04:14.324Z,80.90
2019-04-28T14:05:21.682Z,80.90
2019-04-28T14:06:30.868Z,81.10
2019-04-28T14:07:37.362Z,81.10
2019-04-28T14:08:43.107Z,81.10
2019-04-28T14:09:47.311Z,81.10
2019-04-28T14:10:53.149Z,81.10
2019-04-28T14:11:59.593Z,81.10
2019-04-28T14:13:05.516Z,81.90
2019-04-28T14:14:11.006Z,81.10
2019-04-28T14:15:17.081Z,81.20
2019-04-28T14:16:24.749Z,81.30
2019-04-28T14:17:28.991Z,81.40
2019-04-28T14:18:34.670Z,81.40
2019-04-28T14:19:40.441Z,81.40
2019-04-28T14:20:44.724Z,81.40
2019-04-28T14:21:48.857Z,81.60
2019-04-28T14:22:55.852Z,81.60
2019-04-28T14:24:01.722Z,81.90
2019-04-28T14:25:07.093Z,81.90
2019-04-28T14:26:11.472Z,82.00
2019-04-28T14:27:15.991Z,81.50
2019-04-28T14:28:23.333Z,81.90
2019-04-28T14:29:26.103Z,81.90
2019-04-28T14:30:31.992Z,81.90
2019-04-28T14:31:36.315Z,81.90
2019-04-28T14:32:42.130Z,82.00
2019-04-28T14:33:46.362Z,82.10
2019-04-28T14:34:52.697Z,82.30
2019-04-28T14:35:56.942Z,82.20